Time;durP1;ratioP1;P1;durP2;ratioP2;P2;SDS_P1;SDS_P2;PMS_P1;PMS_P2;Temp;Humidity;BMP_temperature;BMP_pressure;BME280_temperature;BME280_humidity;BME280_pressure;Samples;Min_cycle;Max_cycle;Signal;HPM_P1;HPM_P2
2023/12/27 00:00:37;;;;;;;7.28;5.75;;;21.60;99.90;;;;;;5112305;28;20412;-54
2023/12/27 00:03:03;;;;;;;8.07;5.95;;;21.60;99.90;;;;;;5112531;28;20030;-54
2023/12/27 00:05:29;;;;;;;7.38;5.72;;;21.70;99.90;;;;;;5112496;28;20028;-54
2023/12/27 00:07:55;;;;;;;6.63;5.60;;;21.60;99.90;;;;;;5114750;28;20471;-54
2023/12/27 00:10:21;;;;;;;7.10;6.03;;;21.60;99.90;;;;;;5116653;28;20027;-54
2023/12/27 00:12:47;;;;;;;7.63;5.85;;;21.60;99.90;;;;;;5115174;28;20027;-54
2023/12/27 00:15:13;;;;;;;6.95;5.65;;;21.60;99.90;;;;;;5116270;28;20020;-54
2023/12/27 00:17:39;;;;;;;6.13;5.53;;;21.60;99.90;;;;;;5116351;28;20432;-54
2023/12/27 00:20:06;;;;;;;7.65;5.95;;;21.50;99.90;;;;;;5115185;28;20020;-54
2023/12/27 00:22:31;;;;;;;6.53;5.30;;;21.50;99.90;;;;;;5116100;28;20031;-54
2023/12/27 00:24:57;;;;;;;6.43;5.63;;;21.50;99.90;;;;;;5116273;28;20022;-54
2023/12/27 00:27:23;;;;;;;6.72;5.38;;;21.50;99.90;;;;;;5116244;28;20020;-54
2023/12/27 00:29:49;;;;;;;7.68;4.97;;;21.50;99.90;;;;;;5116117;28;20102;-54
2023/12/27 00:32:15;;;;;;;6.03;5.18;;;21.50;99.90;;;;;;5116060;28;20024;-54
2023/12/27 00:34:41;;;;;;;5.82;5.20;;;21.50;99.90;;;;;;5115907;28;20509;-54
2023/12/27 00:37:07;;;;;;;6.90;5.57;;;21.50;99.90;;;;;;5115896;28;20019;-54
2023/12/27 00:39:34;;;;;;;7.28;6.20;;;21.40;99.90;;;;;;5115793;28;20039;-54
2023/12/27 00:41:59;;;;;;;8.13;5.43;;;21.40;99.90;;;;;;5115662;28;20020;-54
2023/12/27 00:44:25;;;;;;;7.10;5.47;;;21.40;99.90;;;;;;5115909;28;20168;-54
2023/12/27 00:46:51;;;;;;;7.75;5.35;;;21.40;99.90;;;;;;5115757;28;20042;-54
2023/12/27 00:49:17;;;;;;;6.40;5.35;;;21.40;99.90;;;;;;5115650;28;20128;-54
2023/12/27 00:51:44;;;;;;;6.72;5.25;;;21.40;99.90;;;;;;5115692;28;20141;-54
2023/12/27 00:54:10;;;;;;;6.65;5.22;;;21.40;99.90;;;;;;5114585;28;20485;-54
2023/12/27 00:56:36;;;;;;;6.95;5.40;;;21.40;99.90;;;;;;5115581;27;20034;-54
2023/12/27 00:59:02;;;;;;;6.90;5.88;;;21.30;99.90;;;;;;5115481;28;20110;-54
2023/12/27 01:01:30;;;;;;;6.68;5.70;;;21.30;99.90;;;;;;5116287;28;20079;-54
2023/12/27 01:03:56;;;;;;;6.20;5.47;;;21.30;99.90;;;;;;5115813;28;20023;-54
2023/12/27 01:06:22;;;;;;;6.45;5.55;;;21.30;99.90;;;;;;5114035;28;20554;-54
2023/12/27 01:08:48;;;;;;;6.72;4.95;;;21.30;99.90;;;;;;5114380;28;20154;-54
2023/12/27 01:11:14;;;;;;;8.00;5.15;;;21.30;99.90;;;;;;5115268;28;20011;-54
2023/12/27 01:13:40;;;;;;;6.28;5.30;;;21.20;99.90;;;;;;5115561;28;20380;-54
2023/12/27 01:16:06;;;;;;;6.35;5.45;;;21.30;99.90;;;;;;5115233;28;20018;-54
2023/12/27 01:18:32;;;;;;;6.82;5.25;;;21.30;99.90;;;;;;5113801;28;20019;-54
2023/12/27 01:20:58;;;;;;;5.85;4.85;;;21.20;99.90;;;;;;5115417;28;20043;-54
2023/12/27 01:23:23;;;;;;;6.75;4.97;;;21.20;99.90;;;;;;5115075;28;20047;-54
2023/12/27 01:25:49;;;;;;;5.78;5.10;;;21.20;99.90;;;;;;5115009;28;20026;-54
2023/12/27 01:28:16;;;;;;;7.38;5.57;;;21.20;99.90;;;;;;5115007;28;20062;-54
2023/12/27 01:30:41;;;;;;;7.10;5.40;;;21.20;99.90;;;;;;5113628;28;20015;-53
2023/12/27 01:33:07;;;;;;;8.35;5.13;;;21.20;99.90;;;;;;5114885;28;20019;-54
2023/12/27 01:35:33;;;;;;;7.28;5.32;;;21.20;99.90;;;;;;5114700;28;20376;-54
2023/12/27 01:37:59;;;;;;;6.35;5.20;;;21.10;99.90;;;;;;5115228;28;20027;-54
2023/12/27 01:40:24;;;;;;;8.70;6.18;;;21.10;99.90;;;;;;5114686;28;20051;-54
2023/12/27 01:42:50;;;;;;;5.95;5.20;;;21.10;99.90;;;;;;5114750;28;20023;-54
2023/12/27 01:45:16;;;;;;;6.25;5.65;;;21.10;99.90;;;;;;5114712;28;20024;-55
2023/12/27 01:47:43;;;;;;;6.63;5.75;;;21.10;99.90;;;;;;5114664;28;20089;-54
2023/12/27 01:50:09;;;;;;;6.57;5.35;;;21.10;99.90;;;;;;5114715;28;20068;-54
2023/12/27 01:52:42;;;;;;;5.95;5.35;;;21.10;99.90;;;;;;5114627;28;20434;-54
2023/12/27 01:55:10;;;;;;;6.18;5.55;;;21.00;99.90;;;;;;5114593;28;20024;-54
2023/12/27 01:57:39;;;;;;;;;;;21.00;99.90;;;;;;5114828;28;20019;-54
2023/12/27 02:00:09;;;;;;;7.47;6.30;;;21.00;99.90;;;;;;5114930;28;19904;-55
2023/12/27 02:02:37;;;;;;;7.10;5.78;;;21.00;99.90;;;;;;5112982;28;20105;-55
2023/12/27 02:05:03;;;;;;;6.07;5.47;;;21.00;99.90;;;;;;5114383;28;20077;-54
2023/12/27 02:07:29;;;;;;;6.15;5.30;;;21.00;99.90;;;;;;5114452;28;20023;-54
2023/12/27 02:09:55;;;;;;;7.88;6.75;;;21.00;99.90;;;;;;5114101;27;20039;-54
2023/12/27 02:12:31;;;;;;;8.07;5.93;;;20.90;99.90;;;;;;5114280;28;20024;-54
2023/12/27 02:14:57;;;;;;;8.60;6.32;;;20.90;99.90;;;;;;5114559;28;20080;-54
2023/12/27 02:17:25;;;;;;;6.60;5.72;;;20.90;99.90;;;;;;5114063;28;20028;-54
2023/12/27 02:19:52;;;;;;;6.70;5.93;;;20.90;99.90;;;;;;5114033;28;20495;-54
2023/12/27 02:22:20;;;;;;;7.18;5.43;;;20.90;99.90;;;;;;5114278;27;20027;-54
2023/12/27 02:24:51;;;;;;;6.63;5.60;;;20.90;99.90;;;;;;5114074;28;20036;-54
2023/12/27 02:27:17;;;;;;;7.50;5.97;;;20.90;99.90;;;;;;5113871;28;20036;-54
2023/12/27 02:29:43;;;;;;;7.45;6.47;;;20.80;99.90;;;;;;5113533;28;20495;-55
2023/12/27 02:32:09;;;;;;;6.38;5.40;;;20.80;99.90;;;;;;5113968;28;20043;-54
2023/12/27 02:34:35;;;;;;;7.38;5.85;;;20.80;99.90;;;;;;5113762;28;20026;-54
2023/12/27 02:37:01;;;;;;;7.05;5.88;;;20.80;99.90;;;;;;5113992;28;20232;-52
2023/12/27 02:39:26;;;;;;;7.65;5.57;;;20.80;99.90;;;;;;5112537;28;20058;-55
2023/12/27 02:41:52;;;;;;;5.97;5.38;;;20.80;99.90;;;;;;5113627;28;20035;-54
2023/12/27 02:44:18;;;;;;;7.13;5.68;;;20.80;99.90;;;;;;5113711;28;20024;-54
2023/12/27 02:46:44;;;;;;;6.80;6.10;;;20.80;99.90;;;;;;5113600;28;20076;-54
2023/12/27 02:49:10;;;;;;;6.72;5.82;;;20.80;99.90;;;;;;5113417;28;20031;-54
2023/12/27 02:51:36;;;;;;;6.38;5.53;;;20.70;99.90;;;;;;5113679;28;20486;-54
2023/12/27 02:54:01;;;;;;;7.88;5.90;;;20.70;99.90;;;;;;5113490;28;20049;-54
2023/12/27 02:59:03;;;;;;;7.28;5.93;;;20.70;99.90;;;;;;5898484;22;20491;-54
2023/12/27 03:01:28;;;;;;;7.53;5.78;;;20.70;99.90;;;;;;5013140;28;20030;-54
2023/12/27 03:03:54;;;;;;;6.32;5.43;;;20.70;99.90;;;;;;5013129;28;20032;-54
2023/12/27 03:06:20;;;;;;;6.90;5.60;;;20.70;99.90;;;;;;5012918;28;20025;-55
2023/12/27 03:08:45;;;;;;;7.63;5.43;;;20.70;99.90;;;;;;5013069;28;20033;-54
2023/12/27 03:11:13;;;;;;;8.75;6.18;;;20.60;99.90;;;;;;5011980;28;20073;-54
2023/12/27 03:13:38;;;;;;;6.18;4.95;;;20.60;99.90;;;;;;5012841;28;20555;-54
2023/12/27 03:16:07;;;;;;;6.43;5.70;;;20.60;99.90;;;;;;5013159;28;20018;-52
2023/12/27 03:18:33;;;;;;;6.07;5.47;;;20.60;99.90;;;;;;5012983;28;20100;-54
2023/12/27 03:21:00;;;;;;;6.72;5.53;;;20.60;99.90;;;;;;5012889;28;20461;-54
2023/12/27 03:23:26;;;;;;;6.93;5.93;;;20.60;99.90;;;;;;5012777;28;20092;-54
2023/12/27 03:25:52;;;;;;;6.22;5.60;;;20.60;99.90;;;;;;5012910;28;20022;-54
2023/12/27 03:28:17;;;;;;;7.05;6.13;;;20.60;99.90;;;;;;5012710;28;20034;-54
2023/12/27 03:30:43;;;;;;;5.97;5.40;;;20.60;99.90;;;;;;5012715;28;20488;-54
2023/12/27 03:33:09;;;;;;;7.18;5.60;;;20.60;99.90;;;;;;5011521;28;20056;-54
2023/12/27 03:35:35;;;;;;;6.93;5.82;;;20.50;99.90;;;;;;5012932;28;20045;-54
2023/12/27 03:38:01;;;;;;;6.80;5.88;;;20.50;99.90;;;;;;5012779;28;20049;-54
2023/12/27 03:40:27;;;;;;;6.32;5.50;;;20.50;99.90;;;;;;5012643;28;20022;-55
2023/12/27 03:42:53;;;;;;;6.75;5.93;;;20.50;99.90;;;;;;5011790;28;20021;-54
2023/12/27 03:45:19;;;;;;;6.03;5.40;;;20.50;99.90;;;;;;5012746;28;20033;-54
2023/12/27 03:47:47;;;;;;;6.22;5.63;;;20.50;99.90;;;;;;5012565;28;20390;-54
2023/12/27 03:50:13;;;;;;;5.65;5.05;;;20.50;99.90;;;;;;5012524;28;20493;-52
2023/12/27 03:52:41;;;;;;;6.95;5.63;;;20.50;99.90;;;;;;5012297;28;20030;-52
2023/12/27 03:55:08;;;;;;;5.78;5.18;;;20.50;99.90;;;;;;5012333;28;20040;-53
2023/12/27 03:57:34;;;;;;;6.40;5.30;;;20.40;99.90;;;;;;5012671;28;20490;-53
2023/12/27 03:59:59;;;;;;;7.15;5.55;;;20.40;99.90;;;;;;5012608;28;20078;-55
2023/12/27 04:02:25;;;;;;;6.60;5.40;;;20.40;99.90;;;;;;5012387;28;20504;-53
2023/12/27 04:04:51;;;;;;;5.97;5.05;;;20.40;99.90;;;;;;5012326;28;20103;-52
2023/12/27 04:07:17;;;;;;;6.43;5.60;;;20.40;99.90;;;;;;5012043;28;20054;-53
2023/12/27 04:09:43;;;;;;;6.97;5.38;;;20.40;99.90;;;;;;5012098;28;20488;-52
2023/12/27 04:12:09;;;;;;;6.28;5.45;;;20.40;99.90;;;;;;5012210;28;20029;-52
2023/12/27 04:14:35;;;;;;;6.63;4.88;;;20.40;99.90;;;;;;5012460;28;20084;-53
2023/12/27 04:17:01;;;;;;;5.60;5.05;;;20.30;99.90;;;;;;5012284;28;20030;-54
2023/12/27 04:19:26;;;;;;;7.97;5.55;;;20.30;99.90;;;;;;5012211;28;20076;-53
2023/12/27 04:21:52;;;;;;;6.82;5.05;;;20.30;99.90;;;;;;5012121;28;20026;-53
2023/12/27 04:24:18;;;;;;;6.07;5.47;;;20.30;99.90;;;;;;5012212;28;20033;-53
2023/12/27 04:26:44;;;;;;;7.30;5.90;;;20.30;99.90;;;;;;5012020;28;20092;-53
2023/12/27 04:29:10;;;;;;;5.80;5.20;;;20.30;99.90;;;;;;5010876;28;20042;-53
2023/12/27 04:31:39;;;;;;;5.70;5.10;;;20.30;99.90;;;;;;5012231;28;20022;-54
2023/12/27 04:34:06;;;;;;;5.18;4.68;;;20.30;99.90;;;;;;5012191;28;20029;-54
2023/12/27 04:36:32;;;;;;;5.57;4.85;;;20.30;99.90;;;;;;5012139;28;20026;-53
2023/12/27 04:38:58;;;;;;;6.15;5.47;;;20.30;99.90;;;;;;5012035;28;20473;-53
2023/12/27 04:41:24;;;;;;;7.25;5.63;;;20.20;99.90;;;;;;5012071;28;20079;-53
2023/12/27 04:43:49;;;;;;;6.53;5.55;;;20.30;99.90;;;;;;5011888;28;20101;-53
2023/12/27 04:46:15;;;;;;;6.28;4.88;;;20.20;99.90;;;;;;5011881;28;20374;-53
2023/12/27 04:48:41;;;;;;;6.20;4.90;;;20.20;99.90;;;;;;5011733;28;20089;-53
2023/12/27 04:51:07;;;;;;;7.20;5.45;;;20.20;99.90;;;;;;5012060;28;20026;-53
2023/12/27 04:53:33;;;;;;;5.70;4.72;;;20.20;99.90;;;;;;5013435;28;20022;-55
2023/12/27 04:55:59;;;;;;;5.07;4.47;;;20.20;99.90;;;;;;5014083;28;20014;-53
2023/12/27 04:58:24;;;;;;;5.30;4.72;;;20.20;99.90;;;;;;5015207;28;20025;-54
2023/12/27 05:00:50;;;;;;;7.47;5.00;;;20.20;99.90;;;;;;5016299;28;20397;-53
2023/12/27 05:03:16;;;;;;;6.18;5.53;;;20.20;99.90;;;;;;5015206;28;20140;-53
2023/12/27 05:05:42;;;;;;;5.57;3.92;;;20.20;99.90;;;;;;5015232;28;20022;-53
2023/12/27 05:08:07;;;;;;;5.70;4.78;;;20.20;99.90;;;;;;5014116;28;20443;-53
2023/12/27 05:10:33;;;;;;;6.10;4.50;;;20.10;99.90;;;;;;5015073;28;20068;-53
2023/12/27 05:12:59;;;;;;;5.55;4.95;;;20.10;99.90;;;;;;5013832;28;20028;-53
2023/12/27 05:15:25;;;;;;;4.18;3.78;;;20.10;99.90;;;;;;5015345;28;20049;-53
2023/12/27 05:17:51;;;;;;;5.28;4.35;;;20.10;99.90;;;;;;5014842;28;20084;-53
2023/12/27 05:20:17;;;;;;;5.53;4.40;;;20.10;99.90;;;;;;5013734;28;20029;-53
2023/12/27 05:22:44;;;;;;;5.38;4.72;;;20.10;99.90;;;;;;5014731;28;20104;-53
2023/12/27 05:25:12;;;;;;;5.20;4.40;;;20.10;99.90;;;;;;5014892;28;20022;-53
2023/12/27 05:27:37;;;;;;;5.50;4.55;;;20.10;99.90;;;;;;5014900;28;20034;-53
2023/12/27 05:30:04;;;;;;;5.35;4.60;;;20.10;99.90;;;;;;5014813;28;20033;-53
2023/12/27 05:32:29;;;;;;;5.95;4.40;;;20.10;99.90;;;;;;5014598;28;20030;-53
2023/12/27 05:34:55;;;;;;;4.57;4.15;;;20.10;99.90;;;;;;5014552;28;20421;-53
2023/12/27 05:37:21;;;;;;;4.97;4.28;;;20.10;99.90;;;;;;5013198;28;20034;-52
2023/12/27 05:39:47;;;;;;;5.13;4.63;;;20.10;99.90;;;;;;5014891;28;20022;-53
2023/12/27 05:42:13;;;;;;;5.75;5.00;;;20.10;99.90;;;;;;5014369;28;20105;-53
2023/12/27 05:44:40;;;;;;;5.88;4.22;;;20.00;99.90;;;;;;5014466;28;20061;-52
2023/12/27 05:47:06;;;;;;;5.07;4.25;;;20.00;99.90;;;;;;5014202;28;20022;-52
2023/12/27 05:49:32;;;;;;;5.13;4.35;;;20.00;99.90;;;;;;5014250;28;20084;-50
2023/12/27 05:51:57;;;;;;;8.82;4.80;;;20.00;99.90;;;;;;5014362;28;20061;-53
2023/12/27 05:54:25;;;;;;;7.05;4.70;;;20.00;99.90;;;;;;5014115;28;20057;-53
2023/12/27 05:56:51;;;;;;;5.00;4.50;;;20.10;99.90;;;;;;5014569;28;20164;-51
2023/12/27 05:59:17;;;;;;;6.13;4.93;;;20.00;99.90;;;;;;5014020;28;20057;-52
2023/12/27 06:01:55;;;;;;;4.95;4.20;;;20.00;99.90;;;;;;5014237;28;20509;-50
2023/12/27 06:04:22;;;;;;;6.20;5.30;;;20.00;99.90;;;;;;5013562;28;20446;-52
2023/12/27 06:06:52;;;;;;;7.18;5.10;;;20.00;99.90;;;;;;5012612;28;20030;-53
2023/12/27 06:09:18;;;;;;;5.18;4.68;;;20.00;99.90;;;;;;5012733;28;20109;-51
2023/12/27 06:11:45;;;;;;;4.57;3.95;;;19.90;99.90;;;;;;5014035;28;20033;-51
2023/12/27 06:14:11;;;;;;;7.70;4.95;;;19.90;99.90;;;;;;5012714;28;20026;-51
2023/12/27 06:16:37;;;;;;;4.90;4.40;;;19.90;99.90;;;;;;5013978;28;20381;-52
2023/12/27 06:19:03;;;;;;;6.25;4.95;;;19.90;99.90;;;;;;5013844;28;20105;-51
2023/12/27 06:21:29;;;;;;;5.20;4.63;;;19.90;99.90;;;;;;5013761;28;20030;-51
2023/12/27 06:23:56;;;;;;;5.50;4.75;;;19.90;99.90;;;;;;5013707;28;20010;-51
2023/12/27 06:26:22;;;;;;;5.68;4.43;;;19.90;99.90;;;;;;5013617;28;20025;-51
2023/12/27 06:28:48;;;;;;;7.90;5.20;;;19.90;99.90;;;;;;5013393;28;20045;-50
2023/12/27 06:31:14;;;;;;;4.80;3.80;;;19.90;99.90;;;;;;5012409;28;20057;-51
2023/12/27 06:33:40;;;;;;;5.93;4.45;;;19.90;99.90;;;;;;5013500;28;20053;-51
2023/12/27 06:36:09;;;;;;;4.80;3.95;;;19.90;99.90;;;;;;5013568;28;20057;-53
2023/12/27 06:38:35;;;;;;;5.32;4.40;;;19.90;99.90;;;;;;5012079;28;20122;-54
2023/12/27 06:41:02;;;;;;;5.00;4.50;;;19.90;99.90;;;;;;5013516;28;20093;-50
2023/12/27 06:43:28;;;;;;;4.68;4.13;;;19.90;99.90;;;;;;5013360;28;20022;-53
2023/12/27 06:45:54;;;;;;;5.22;4.45;;;19.90;99.90;;;;;;5013299;28;20474;-54
2023/12/27 06:48:20;;;;;;;6.30;4.50;;;19.80;99.90;;;;;;5013098;28;20393;-52
2023/12/27 06:50:48;;;;;;;6.90;4.78;;;19.80;99.90;;;;;;5012098;28;20426;-51
2023/12/27 06:53:13;;;;;;;5.63;4.43;;;19.90;99.90;;;;;;5013532;28;20026;-52
2023/12/27 06:55:39;;;;;;;6.35;4.45;;;19.80;99.90;;;;;;5013124;28;20507;-54
2023/12/27 06:58:05;;;;;;;4.07;3.60;;;19.80;99.90;;;;;;5013061;28;20097;-51
2023/12/27 07:00:31;;;;;;;7.32;4.53;;;19.80;99.90;;;;;;5012864;28;20456;-51
2023/12/27 07:02:56;;;;;;;6.18;4.50;;;19.80;99.90;;;;;;5011931;28;20022;-53
2023/12/27 07:05:22;;;;;;;6.25;3.97;;;19.80;99.90;;;;;;5013097;28;20037;-53
2023/12/27 07:07:48;;;;;;;6.60;4.53;;;19.80;99.90;;;;;;5012978;28;20037;-53
2023/12/27 07:10:14;;;;;;;5.57;4.47;;;19.80;99.90;;;;;;5013200;28;20026;-52
2023/12/27 07:12:40;;;;;;;4.80;4.30;;;19.80;99.90;;;;;;5012912;28;20389;-53
2023/12/27 07:15:07;;;;;;;7.50;4.45;;;19.80;99.90;;;;;;5011587;28;20022;-53
2023/12/27 07:17:33;;;;;;;7.28;4.75;;;19.80;99.90;;;;;;5012791;28;20022;-53
2023/12/27 07:20:00;;;;;;;5.38;4.05;;;19.80;99.90;;;;;;5012793;28;20034;-53
2023/12/27 07:22:26;;;;;;;5.25;4.13;;;19.70;99.90;;;;;;5012750;28;20018;-52
2023/12/27 07:24:52;;;;;;;6.13;4.10;;;19.70;99.90;;;;;;5012694;28;20367;-52
2023/12/27 07:27:18;;;;;;;6.07;4.15;;;19.70;99.90;;;;;;5012764;28;20057;-52
2023/12/27 07:29:44;;;;;;;5.43;4.22;;;19.70;99.90;;;;;;5012801;28;20037;-52
2023/12/27 07:32:09;;;;;;;5.57;4.20;;;19.70;99.90;;;;;;5012694;28;20030;-53
2023/12/27 07:34:35;;;;;;;7.95;5.13;;;19.70;99.90;;;;;;5012527;28;20033;-51
2023/12/27 07:37:01;;;;;;;5.13;4.32;;;19.70;99.90;;;;;;5012487;28;20121;-51
2023/12/27 07:39:27;;;;;;;4.53;3.83;;;19.70;99.90;;;;;;5012515;28;20046;-51
2023/12/27 07:41:53;;;;;;;6.78;4.57;;;19.70;99.90;;;;;;5012616;28;20042;-50
2023/12/27 07:44:20;;;;;;;5.10;4.25;;;19.70;99.90;;;;;;5012670;28;20599;-51
2023/12/27 07:46:46;;;;;;;5.22;4.38;;;19.70;99.90;;;;;;5012314;28;20029;-51
2023/12/27 07:49:12;;;;;;;5.38;4.20;;;19.70;99.90;;;;;;5012371;28;20038;-52
2023/12/27 07:51:38;;;;;;;6.13;4.22;;;19.70;99.90;;;;;;5012479;28;20149;-52
2023/12/27 07:54:03;;;;;;;4.95;4.13;;;19.70;99.90;;;;;;5012385;28;20033;-52
2023/12/27 07:56:29;;;;;;;5.53;4.75;;;19.70;99.90;;;;;;5012922;28;20026;-52
2023/12/27 07:58:55;;;;;;;4.97;4.47;;;19.70;99.90;;;;;;5012301;28;20419;-52
2023/12/27 08:01:21;;;;;;;6.65;4.60;;;19.70;99.90;;;;;;5012164;28;20050;-52
2023/12/27 08:03:47;;;;;;;5.65;4.60;;;19.70;99.90;;;;;;4994940;28;20022;-53
2023/12/27 08:06:13;;;;;;;6.03;4.55;;;19.70;99.90;;;;;;5012353;28;20092;-52
2023/12/27 08:08:39;;;;;;;5.90;3.92;;;19.70;99.90;;;;;;5012147;28;20453;-52
2023/12/27 08:11:05;;;;;;;4.95;3.83;;;19.70;99.90;;;;;;5010861;28;20030;-52
2023/12/27 08:13:35;;;;;;;6.72;4.25;;;19.70;99.90;;;;;;5010869;28;20033;-52
2023/12/27 08:16:01;;;;;;;6.25;4.53;;;19.70;99.90;;;;;;5012241;28;20018;-52
2023/12/27 08:18:27;;;;;;;5.72;4.18;;;19.70;99.90;;;;;;5012156;28;20026;-52
2023/12/27 08:20:53;;;;;;;5.03;3.83;;;19.80;99.90;;;;;;5012163;28;20018;-51
2023/12/27 08:23:19;;;;;;;6.50;3.85;;;19.80;99.90;;;;;;5012336;28;20109;-52
2023/12/27 08:25:45;;;;;;;4.65;3.80;;;19.80;99.90;;;;;;5010776;28;20120;-51
2023/12/27 08:28:11;;;;;;;4.20;3.45;;;19.80;99.90;;;;;;5013050;28;20111;-51
2023/12/27 08:30:37;;;;;;;7.13;4.18;;;19.90;99.90;;;;;;5015730;28;20018;-51
2023/12/27 08:33:06;;;;;;;5.45;3.85;;;19.90;99.90;;;;;;5015638;28;20022;-51
2023/12/27 08:35:36;;;;;;;5.88;4.10;;;20.00;99.90;;;;;;5015764;28;20117;-51
2023/12/27 08:38:02;;;;;;;4.80;4.18;;;20.00;99.90;;;;;;5015700;28;20026;-52
2023/12/27 08:40:28;;;;;;;4.50;3.88;;;20.00;99.90;;;;;;5015734;28;20414;-53
2023/12/27 08:42:54;;;;;;;5.10;3.90;;;20.10;99.90;;;;;;5015710;28;20024;-51
2023/12/27 08:45:20;;;;;;;4.63;3.63;;;20.10;99.90;;;;;;5015855;28;20535;-52
2023/12/27 08:47:46;;;;;;;5.30;3.80;;;20.10;99.90;;;;;;5015612;28;20474;-52
2023/12/27 08:50:12;;;;;;;4.75;3.80;;;20.20;99.90;;;;;;5015537;28;20382;-52
2023/12/27 08:52:39;;;;;;;5.85;4.13;;;20.20;99.90;;;;;;5015435;28;20026;-53
2023/12/27 08:55:12;;;;;;;5.45;4.32;;;20.20;99.90;;;;;;5015432;28;20419;-52
2023/12/27 08:57:38;;;;;;;4.70;4.30;;;20.30;99.90;;;;;;5014101;28;20056;-53
2023/12/27 09:00:10;;;;;;;4.40;3.78;;;20.30;99.90;;;;;;5014986;28;20505;-53
2023/12/27 09:02:37;;;;;;;4.05;3.20;;;20.30;99.90;;;;;;5015172;28;20021;-54
2023/12/27 09:05:05;;;;;;;5.47;3.78;;;20.40;99.90;;;;;;5015002;28;20116;-53
2023/12/27 09:07:31;;;;;;;4.65;3.83;;;20.40;99.90;;;;;;5015142;28;20033;-52
2023/12/27 09:09:57;;;;;;;4.88;4.05;;;20.40;99.90;;;;;;5015186;28;20030;-52
2023/12/27 09:12:23;;;;;;;6.43;4.25;;;20.50;99.90;;;;;;5015314;28;20076;-52
2023/12/27 09:14:49;;;;;;;5.60;4.03;;;20.50;99.90;;;;;;5014016;28;20034;-53
2023/12/27 09:17:15;;;;;;;4.78;3.75;;;20.60;99.90;;;;;;5013593;28;20034;-53
2023/12/27 09:19:42;;;;;;;3.87;3.47;;;20.60;99.90;;;;;;5014919;28;20041;-51
2023/12/27 09:22:08;;;;;;;4.47;3.80;;;20.60;99.90;;;;;;5014894;28;20467;-53
2023/12/27 09:24:34;;;;;;;4.00;3.50;;;20.60;99.90;;;;;;5014996;28;20026;-53
2023/12/27 09:27:00;;;;;;;6.10;4.00;;;20.70;99.90;;;;;;5013366;28;20100;-52
2023/12/27 09:29:26;;;;;;;5.05;4.00;;;20.70;99.90;;;;;;5014688;28;20496;-51
2023/12/27 09:31:52;;;;;;;6.55;4.20;;;20.70;99.90;;;;;;5014931;28;20112;-53
2023/12/27 09:34:18;;;;;;;6.10;3.80;;;20.80;99.90;;;;;;5013378;28;20026;-53
2023/12/27 09:36:44;;;;;;;6.57;3.97;;;20.80;99.90;;;;;;4997157;28;20072;-54
2023/12/27 09:39:11;;;;;;;4.30;3.90;;;20.80;99.90;;;;;;5013926;28;20018;-53
2023/12/27 09:41:37;;;;;;;4.20;3.67;;;20.90;99.90;;;;;;5014153;28;20045;-53
2023/12/27 09:44:06;;;;;;;4.25;3.85;;;20.90;99.90;;;;;;5013349;28;20473;-52
2023/12/27 09:46:33;;;;;;;4.63;3.95;;;20.90;99.90;;;;;;5013358;28;20026;-52
2023/12/27 09:48:59;;;;;;;4.38;3.65;;;21.00;99.90;;;;;;5014368;28;20382;-57
2023/12/27 09:51:26;;;;;;;5.75;4.57;;;21.00;99.90;;;;;;5014652;28;20022;-52
2023/12/27 09:53:52;;;;;;;6.30;4.25;;;21.10;99.90;;;;;;5014526;28;20030;-54
2023/12/27 09:56:21;;;;;;;4.45;3.95;;;21.10;99.90;;;;;;5012864;28;20022;-54
2023/12/27 09:58:55;;;;;;;4.30;3.90;;;21.10;99.90;;;;;;5014210;28;20101;-54
2023/12/27 10:01:26;;;;;;;5.10;4.30;;;21.10;99.90;;;;;;5013965;28;20486;-51
2023/12/27 10:03:59;;;;;;;5.15;4.38;;;21.20;99.90;;;;;;5014183;28;20026;-53
2023/12/27 10:06:44;;;;;;;5.43;4.47;;;21.30;99.90;;;;;;5014063;28;20486;-52
2023/12/27 10:09:11;;;;;;;4.60;3.90;;;21.30;99.90;;;;;;5013927;28;20042;-54
2023/12/27 10:11:41;;;;;;;4.93;3.83;;;21.30;99.90;;;;;;5014013;28;20609;-54
2023/12/27 10:14:09;;;;;;;5.13;4.40;;;21.40;99.90;;;;;;5013942;28;20018;-55
2023/12/27 10:16:36;;;;;;;5.43;4.40;;;21.40;99.90;;;;;;5014015;28;20029;-56
2023/12/27 10:19:04;;;;;;;7.63;4.40;;;21.50;99.90;;;;;;5012524;28;20340;-54
2023/12/27 10:21:52;;;;;;;4.95;4.25;;;21.50;99.90;;;;;;5013654;28;20029;-53
2023/12/27 10:24:17;;;;;;;;;;;21.50;99.90;;;;;;5014062;28;20522;-52
2023/12/27 10:26:43;;;;;;;5.67;4.83;;;21.60;99.90;;;;;;5013704;28;19913;-53
2023/12/27 10:29:09;;;;;;;5.50;4.55;;;21.70;99.90;;;;;;5013708;28;20037;-53
2023/12/27 10:31:35;;;;;;;5.53;4.32;;;21.70;99.90;;;;;;5013325;28;20532;-53
2023/12/27 10:34:03;;;;;;;5.95;4.60;;;21.80;99.90;;;;;;5013499;28;20058;-53
2023/12/27 10:36:34;;;;;;;5.38;4.80;;;21.80;99.90;;;;;;5014064;28;20458;-54
2023/12/27 10:39:04;;;;;;;6.63;5.35;;;21.90;99.90;;;;;;5013339;28;20037;-55
2023/12/27 10:41:33;;;;;;;8.35;5.07;;;21.90;99.90;;;;;;5012075;28;20041;-53
2023/12/27 10:44:00;;;;;;;6.47;5.25;;;21.90;99.90;;;;;;5013329;28;20021;-54
2023/12/27 10:46:26;;;;;;;6.70;5.03;;;22.00;99.90;;;;;;5013649;28;20194;-54
2023/12/27 10:48:56;;;;;;;10.70;6.15;;;22.00;99.90;;;;;;5013077;28;20144;-55
2023/12/27 10:51:24;;;;;;;7.53;5.38;;;22.10;99.90;;;;;;5012996;28;20022;-55
2023/12/27 10:53:52;;;;;;;10.07;5.82;;;22.10;99.90;;;;;;5013108;28;20055;-55
2023/12/27 10:56:20;;;;;;;6.63;5.72;;;22.20;99.90;;;;;;5011839;28;20041;-53
2023/12/27 10:58:51;;;;;;;8.75;6.38;;;22.20;99.90;;;;;;5013059;28;20028;-54
2023/12/27 11:01:18;;;;;;;8.10;6.25;;;22.30;99.90;;;;;;5011484;28;20041;-53
2023/12/27 11:03:47;;;;;;;8.88;6.47;;;22.30;99.90;;;;;;5012961;28;20358;-52
2023/12/27 11:06:16;;;;;;;9.30;6.18;;;22.30;99.90;;;;;;5012929;28;20022;-53
2023/12/27 11:08:45;;;;;;;10.18;7.20;;;22.40;99.90;;;;;;5011359;28;20061;-54
2023/12/27 11:11:15;;;;;;;8.95;7.47;;;22.40;99.90;;;;;;5012796;28;20045;-53
2023/12/27 11:13:42;;;;;;;9.55;7.18;;;22.50;99.90;;;;;;5012699;28;20103;-54
2023/12/27 11:16:10;;;;;;;9.50;7.20;;;22.50;99.90;;;;;;5012741;28;20050;-53
2023/12/27 11:18:37;;;;;;;9.50;7.50;;;22.60;99.90;;;;;;5011682;28;20371;-54
2023/12/27 11:21:03;;;;;;;10.70;7.68;;;22.60;99.90;;;;;;5012807;28;20104;-53
2023/12/27 11:23:29;;;;;;;7.97;6.60;;;22.60;99.90;;;;;;5011624;28;20057;-52
2023/12/27 11:25:56;;;;;;;9.30;7.47;;;22.60;99.90;;;;;;5012718;28;20029;-55
2023/12/27 11:28:23;;;;;;;8.70;7.40;;;22.70;99.90;;;;;;5012623;28;20034;-53
2023/12/27 11:30:49;;;;;;;9.52;7.70;;;22.70;99.90;;;;;;5012565;28;20014;-53
2023/12/27 11:33:21;;;;;;;10.23;7.90;;;22.70;99.90;;;;;;5012511;28;20100;-54
2023/12/27 11:35:47;;;;;;;12.25;8.40;;;22.80;99.90;;;;;;5012510;28;20439;-54
2023/12/27 11:38:13;;;;;;;11.77;8.80;;;22.80;99.90;;;;;;5012581;28;20037;-54
2023/12/27 11:40:39;;;;;;;12.70;9.60;;;22.80;99.90;;;;;;5012487;28;20402;-54
2023/12/27 11:43:07;;;;;;;10.85;8.63;;;22.90;99.90;;;;;;5012489;28;20030;-54
2023/12/27 11:46:02;;;;;;;13.05;10.20;;;22.90;99.90;;;;;;5012455;28;20551;-54
2023/12/27 11:48:35;;;;;;;14.13;11.00;;;22.90;99.90;;;;;;5012601;28;20069;-53
2023/12/27 11:51:02;;;;;;;18.00;11.95;;;22.90;99.90;;;;;;5012668;28;20088;-54
2023/12/27 11:53:29;;;;;;;14.77;11.50;;;23.00;99.90;;;;;;5012527;28;20084;-54
2023/12/27 11:55:59;;;;;;;16.55;12.05;;;23.10;99.90;;;;;;5012246;28;20511;-53
2023/12/27 11:58:38;;;;;;;17.00;11.68;;;23.10;99.90;;;;;;5011011;28;20025;-54
2023/12/27 12:01:24;;;;;;;16.90;11.50;;;23.10;99.90;;;;;;5012192;28;20046;-54
2023/12/27 12:04:06;;;;;;;14.90;11.43;;;23.10;99.90;;;;;;5014243;28;20033;-54
2023/12/27 12:06:33;;;;;;;16.55;12.25;;;23.20;99.90;;;;;;5016348;28;20021;-54
2023/12/27 12:09:00;;;;;;;17.83;12.82;;;23.20;99.90;;;;;;5016505;28;20112;-54
2023/12/27 12:11:27;;;;;;;15.00;12.18;;;23.20;99.90;;;;;;5016350;28;20075;-55
2023/12/27 12:13:54;;;;;;;17.08;12.07;;;23.20;99.90;;;;;;5015125;28;20489;-54
2023/12/27 12:16:20;;;;;;;14.93;12.10;;;23.20;99.90;;;;;;5016091;28;20029;-53
2023/12/27 12:18:46;;;;;;;15.05;12.02;;;23.30;99.90;;;;;;5016035;28;20022;-53
2023/12/27 12:21:13;;;;;;;16.70;12.48;;;23.30;99.90;;;;;;5014896;28;20120;-53
2023/12/27 12:23:38;;;;;;;15.75;12.15;;;23.40;99.90;;;;;;5016022;28;20022;-54
2023/12/27 12:26:05;;;;;;;15.18;11.48;;;23.40;99.90;;;;;;5016008;28;20037;-54
2023/12/27 12:28:31;;;;;;;16.70;11.55;;;23.40;99.90;;;;;;5014684;28;20041;-54
2023/12/27 12:31:00;;;;;;;15.90;12.60;;;23.40;99.90;;;;;;5015806;28;20033;-53
2023/12/27 12:33:26;;;;;;;15.70;12.10;;;23.40;99.90;;;;;;5015709;28;20101;-54
2023/12/27 12:35:55;;;;;;;14.65;11.50;;;23.50;99.90;;;;;;5015612;28;20027;-54
2023/12/27 12:38:21;;;;;;;14.27;11.48;;;23.50;99.90;;;;;;5014653;28;20470;-55
2023/12/27 12:40:48;;;;;;;14.30;11.13;;;23.50;99.90;;;;;;5015629;28;20051;-55
2023/12/27 12:43:17;;;;;;;13.98;11.10;;;23.50;99.90;;;;;;5014334;28;20274;-55
2023/12/27 12:45:46;;;;;;;14.43;10.48;;;23.60;99.90;;;;;;5014192;28;20018;-54